createdAt,value
2022-08-20T00:00:42.922Z,20.11
2022-08-20T00:03:18.848Z,20.13
2022-08-20T00:05:53.967Z,20.09
2022-08-20T00:08:27.336Z,20.04
2022-08-20T00:11:01.423Z,20.02
2022-08-20T00:13:38.210Z,19.99
2022-08-20T00:16:11.352Z,19.96
2022-08-20T00:18:42.589Z,19.97
2022-08-20T00:21:18.672Z,19.99
2022-08-20T00:23:51.784Z,19.99
2022-08-20T00:26:23.084Z,20.01
2022-08-20T00:28:53.437Z,19.96
2022-08-20T00:31:25.003Z,19.87
2022-08-20T00:33:54.306Z,19.76
2022-08-20T00:36:32.769Z,19.63
2022-08-20T00:39:02.728Z,19.45
2022-08-20T00:41:31.890Z,19.39
2022-08-20T00:44:31.581Z,19.40
2022-08-20T00:47:00.927Z,19.40
2022-08-20T00:49:32.483Z,19.41
2022-08-20T00:52:14.263Z,19.39
2022-08-20T00:54:55.046Z,19.37
2022-08-20T00:57:44.529Z,19.33
2022-08-20T01:00:28.571Z,19.27
2022-08-20T01:03:00.890Z,19.25
2022-08-20T01:05:30.979Z,19.25
2022-08-20T01:07:59.469Z,19.21
2022-08-20T01:10:33.274Z,19.18
2022-08-20T01:13:11.365Z,19.16
2022-08-20T01:15:43.795Z,19.11
2022-08-20T01:18:18.549Z,19.09
2022-08-20T01:21:04.849Z,19.04
2022-08-20T01:23:55.779Z,18.99
2022-08-20T01:26:31.864Z,18.96
2022-08-20T01:29:12.553Z,18.93
2022-08-20T01:31:46.128Z,18.88
2022-08-20T01:34:21.310Z,18.90
2022-08-20T01:36:53.407Z,18.92
2022-08-20T01:39:27.737Z,18.89
2022-08-20T01:42:15.683Z,18.81
2022-08-20T01:44:47.424Z,18.70
2022-08-20T01:47:26.231Z,18.66
2022-08-20T01:50:00.801Z,18.60
2022-08-20T01:52:34.849Z,18.56
2022-08-20T01:55:06.740Z,18.53
2022-08-20T01:57:37.745Z,18.48
2022-08-20T02:00:17.943Z,18.45
2022-08-20T02:02:51.056Z,18.42
2022-08-20T02:05:21.174Z,18.39
2022-08-20T02:07:49.798Z,18.29
2022-08-20T02:10:19.231Z,18.27
2022-08-20T02:12:47.784Z,18.16
2022-08-20T02:15:18.958Z,18.03
2022-08-20T02:18:07.988Z,17.90
2022-08-20T02:20:41.917Z,17.90
2022-08-20T02:23:12.598Z,17.90
2022-08-20T02:25:44.103Z,17.88
2022-08-20T02:28:15.935Z,17.84
2022-08-20T02:30:48.721Z,17.85
2022-08-20T02:33:22.338Z,17.85
2022-08-20T02:35:56.655Z,17.89
2022-08-20T02:38:26.194Z,17.95
2022-08-20T02:40:56.832Z,18.00
2022-08-20T02:43:26.085Z,18.02
2022-08-20T02:45:54.711Z,17.98
2022-08-20T02:48:23.991Z,17.97
2022-08-20T02:50:59.002Z,17.92
2022-08-20T02:53:30.415Z,17.88
2022-08-20T02:56:04.355Z,17.83
2022-08-20T02:58:36.219Z,17.67
2022-08-20T03:01:08.142Z,17.58
2022-08-20T03:03:37.084Z,17.57
2022-08-20T03:06:07.412Z,17.55
2022-08-20T03:08:37.792Z,17.49
2022-08-20T03:11:07.308Z,17.52
2022-08-20T03:13:36.803Z,17.57
2022-08-20T03:16:07.528Z,17.63
2022-08-20T03:18:41.577Z,17.64
2022-08-20T03:21:11.825Z,17.56
2022-08-20T03:23:44.148Z,17.40
2022-08-20T03:26:14.598Z,17.42
2022-08-20T03:28:45.110Z,17.47
2022-08-20T03:31:18.185Z,17.49
2022-08-20T03:33:52.601Z,17.50
2022-08-20T03:36:28.285Z,17.44
2022-08-20T03:38:59.691Z,17.43
2022-08-20T03:41:29.310Z,17.42
2022-08-20T03:43:58.638Z,17.40
2022-08-20T03:46:29.271Z,17.41
2022-08-20T03:49:00.023Z,17.33
2022-08-20T03:51:34.385Z,17.31
2022-08-20T03:54:23.984Z,17.28
2022-08-20T03:56:58.199Z,17.28
2022-08-20T03:59:27.067Z,17.34
2022-08-20T04:01:57.686Z,17.36
2022-08-20T04:04:28.549Z,17.35
2022-08-20T04:07:02.355Z,17.35
2022-08-20T04:09:31.934Z,17.42
2022-08-20T04:12:01.389Z,17.48
2022-08-20T04:14:32.463Z,17.65
2022-08-20T04:17:10.898Z,17.82
2022-08-20T04:19:39.625Z,17.98
2022-08-20T04:22:08.764Z,18.16
2022-08-20T04:24:37.645Z,18.36
2022-08-20T04:27:06.341Z,18.51
2022-08-20T04:29:37.049Z,18.64
2022-08-20T04:32:07.385Z,18.79
2022-08-20T04:34:37.398Z,18.85
2022-08-20T04:37:16.567Z,18.97
2022-08-20T04:40:06.330Z,19.07
2022-08-20T04:42:39.441Z,19.42
2022-08-20T04:45:11.047Z,19.73
2022-08-20T04:47:42.118Z,20.08
2022-08-20T04:50:14.562Z,20.42
2022-08-20T04:52:45.721Z,20.76
2022-08-20T04:55:20.691Z,21.15
2022-08-20T04:57:54.993Z,21.53
2022-08-20T05:00:23.898Z,21.87
2022-08-20T05:02:53.136Z,22.18
2022-08-20T05:05:22.922Z,22.47
2022-08-20T05:07:52.620Z,22.70
2022-08-20T05:10:26.614Z,22.88
2022-08-20T05:12:57.202Z,23.03
2022-08-20T05:15:26.987Z,23.35
2022-08-20T05:18:00.914Z,23.68
2022-08-20T05:20:34.349Z,24.04
2022-08-20T05:23:04.586Z,24.29
2022-08-20T05:25:34.624Z,24.56
2022-08-20T05:28:10.035Z,24.78
2022-08-20T05:30:41.611Z,24.97
2022-08-20T05:33:16.542Z,25.03
2022-08-20T05:35:45.403Z,25.11
2022-08-20T05:38:16.698Z,25.31
2022-08-20T05:40:46.716Z,25.67
2022-08-20T05:43:16.382Z,25.97
2022-08-20T05:45:50.699Z,26.19
2022-08-20T05:48:25.652Z,26.44
2022-08-20T05:50:55.066Z,26.81
2022-08-20T05:53:25.603Z,27.09
2022-08-20T05:55:55.341Z,27.35
2022-08-20T05:58:34.433Z,27.58
2022-08-20T06:01:04.390Z,27.83
2022-08-20T06:03:52.450Z,28.17
2022-08-20T06:06:44.982Z,28.24
2022-08-20T06:09:12.554Z,28.26
2022-08-20T06:11:45.054Z,28.59
2022-08-20T06:14:16.859Z,28.97
2022-08-20T06:16:57.089Z,29.45
2022-08-20T06:19:32.361Z,29.84
2022-08-20T06:22:08.664Z,30.14
2022-08-20T06:24:51.997Z,30.30
2022-08-20T06:27:21.132Z,30.36
2022-08-20T06:29:54.373Z,30.25
2022-08-20T06:32:32.288Z,30.35
2022-08-20T06:35:04.820Z,30.39
2022-08-20T06:37:38.396Z,30.55
2022-08-20T06:40:14.159Z,30.35
2022-08-20T06:42:48.834Z,30.28
2022-08-20T06:45:32.368Z,30.33
2022-08-20T06:48:06.716Z,30.71
2022-08-20T06:50:47.864Z,31.00
2022-08-20T06:53:20.729Z,31.44
2022-08-20T06:55:53.497Z,31.92
2022-08-20T06:58:36.665Z,32.29
2022-08-20T07:01:09.364Z,32.44
2022-08-20T07:03:55.397Z,32.69
2022-08-20T07:06:28.702Z,32.80
2022-08-20T07:09:01.592Z,33.03
2022-08-20T07:11:30.564Z,33.25
2022-08-20T07:14:03.025Z,33.42
2022-08-20T07:16:34.566Z,33.95
2022-08-20T07:19:03.749Z,33.88
2022-08-20T07:21:34.038Z,33.67
2022-08-20T07:24:04.506Z,33.80
2022-08-20T07:26:35.407Z,34.20
2022-08-20T07:29:04.793Z,34.30
2022-08-20T07:31:52.860Z,34.33
2022-08-20T07:34:25.304Z,34.77
2022-08-20T07:36:55.781Z,35.09
2022-08-20T07:39:28.576Z,35.36
2022-08-20T07:42:08.040Z,35.85
2022-08-20T07:44:39.195Z,36.17
2022-08-20T07:47:08.425Z,36.26
2022-08-20T07:49:48.208Z,36.56
2022-08-20T07:52:17.707Z,36.68
2022-08-20T07:54:48.331Z,36.92
2022-08-20T07:57:21.943Z,36.97
2022-08-20T07:59:57.134Z,37.09
2022-08-20T08:02:28.369Z,37.11
2022-08-20T08:04:58.435Z,37.33
2022-08-20T08:07:31.040Z,37.45
2022-08-20T08:10:02.183Z,37.51
2022-08-20T08:12:38.314Z,37.40
2022-08-20T08:15:11.764Z,37.27
2022-08-20T08:17:43.742Z,37.28
2022-08-20T08:20:14.275Z,37.33
2022-08-20T08:22:46.147Z,37.68
2022-08-20T08:25:17.590Z,37.74
2022-08-20T08:27:53.021Z,37.73
2022-08-20T08:30:24.606Z,37.96
2022-08-20T08:33:16.845Z,38.17
2022-08-20T08:35:48.675Z,38.20
2022-08-20T08:38:19.125Z,38.73
2022-08-20T08:40:59.783Z,39.04
2022-08-20T08:43:32.032Z,39.03
2022-08-20T08:46:08.227Z,38.65
2022-08-20T08:48:47.248Z,38.43
2022-08-20T08:51:36.155Z,38.81
2022-08-20T08:54:07.146Z,39.16
2022-08-20T08:56:36.511Z,39.45
2022-08-20T08:59:12.225Z,39.57
2022-08-20T09:01:53.861Z,39.85
2022-08-20T11:14:29.510Z,36.00
2022-08-20T11:17:02.310Z,35.72
2022-08-20T11:19:32.581Z,35.32
2022-08-20T11:22:01.273Z,34.90
2022-08-20T11:24:30.567Z,34.63
2022-08-20T11:27:04.683Z,34.27
2022-08-20T11:29:35.474Z,33.98
2022-08-20T11:32:09.923Z,33.69
2022-08-20T11:34:40.154Z,33.60
2022-08-20T11:37:14.202Z,33.49
2022-08-20T11:39:57.073Z,33.37
2022-08-20T11:42:31.612Z,33.24
2022-08-20T11:45:08.294Z,33.10
2022-08-20T11:47:44.927Z,32.95
2022-08-20T11:50:19.707Z,32.73
2022-08-20T11:52:56.549Z,32.51
2022-08-20T11:55:31.251Z,32.29
2022-08-20T11:58:08.264Z,32.12
2022-08-20T12:00:40.646Z,31.99
2022-08-20T12:03:15.557Z,31.91
2022-08-20T12:05:50.760Z,31.84
2022-08-20T12:08:27.170Z,31.72
2022-08-20T12:11:00.029Z,31.61
2022-08-20T12:13:48.448Z,31.60
2022-08-20T12:16:26.917Z,31.58
2022-08-20T12:19:04.597Z,31.55
2022-08-20T12:21:34.095Z,31.51
2022-08-20T12:24:04.881Z,31.41
2022-08-20T12:26:36.578Z,31.24
2022-08-20T12:29:09.868Z,31.10
2022-08-20T12:31:43.143Z,31.03
2022-08-20T12:34:18.880Z,30.91
2022-08-20T12:36:54.065Z,30.73
2022-08-20T12:39:28.716Z,30.55
2022-08-20T12:42:03.127Z,30.38
2022-08-20T12:44:35.210Z,30.28
2022-08-20T12:47:27.220Z,30.17
2022-08-20T12:50:00.682Z,29.99
2022-08-20T12:52:40.106Z,29.84
2022-08-20T12:55:11.452Z,29.73
2022-08-20T12:57:50.322Z,29.64
2022-08-20T13:00:27.609Z,29.59
2022-08-20T13:03:09.096Z,29.54
2022-08-20T13:05:38.915Z,29.49
2022-08-20T13:08:13.892Z,29.38
2022-08-20T13:10:46.850Z,29.17
2022-08-20T13:13:20.324Z,28.88
2022-08-20T13:15:57.986Z,28.58
2022-08-20T13:18:26.863Z,28.30
2022-08-20T13:20:57.735Z,28.01
2022-08-20T13:23:27.911Z,27.74
2022-08-20T13:25:57.717Z,27.56
2022-08-20T13:28:29.598Z,27.34
2022-08-20T13:31:04.556Z,27.03
2022-08-20T13:33:39.319Z,26.90
2022-08-20T13:36:12.759Z,26.81
2022-08-20T13:38:42.436Z,26.71
2022-08-20T13:41:15.754Z,26.68
2022-08-20T13:43:44.534Z,26.70
2022-08-20T13:46:17.567Z,26.70
2022-08-20T13:48:51.218Z,26.64
2022-08-20T13:51:27.630Z,26.56
2022-08-20T13:54:04.150Z,26.44
2022-08-20T13:56:34.905Z,26.36
2022-08-20T13:59:07.451Z,26.30
2022-08-20T14:01:47.510Z,26.26
2022-08-20T14:04:20.216Z,26.24
2022-08-20T14:06:48.777Z,26.22
2022-08-20T14:09:25.256Z,26.17
2022-08-20T14:11:59.175Z,26.14
2022-08-20T14:14:30.811Z,26.16
2022-08-20T14:17:12.687Z,26.14
2022-08-20T14:19:48.252Z,26.14
2022-08-20T14:22:18.148Z,26.14
2022-08-20T14:24:55.733Z,26.16
2022-08-20T14:27:31.109Z,26.10
2022-08-20T14:30:06.169Z,26.09
2022-08-20T14:32:39.091Z,26.01
2022-08-20T14:35:12.172Z,25.92
2022-08-20T14:37:46.814Z,25.87
2022-08-20T14:40:24.711Z,25.81
2022-08-20T14:42:55.146Z,25.68
2022-08-20T14:45:29.556Z,25.58
2022-08-20T14:48:00.130Z,25.51
2022-08-20T14:50:37.237Z,25.52
2022-08-20T14:53:10.579Z,25.50
2022-08-20T14:55:44.697Z,25.47
2022-08-20T14:58:18.352Z,25.47
2022-08-20T15:00:48.224Z,25.42
2022-08-20T15:03:17.770Z,25.38
2022-08-20T15:05:51.203Z,25.33
2022-08-20T15:08:21.448Z,25.31
2022-08-20T15:10:59.140Z,25.23
2022-08-20T15:13:30.892Z,25.11
2022-08-20T15:16:03.211Z,25.04
2022-08-20T15:18:35.907Z,25.03
2022-08-20T15:21:10.417Z,24.93
2022-08-20T15:23:39.817Z,24.82
2022-08-20T15:26:10.053Z,24.61
2022-08-20T15:28:41.822Z,24.26
2022-08-20T15:31:15.394Z,24.24
2022-08-20T15:33:49.875Z,24.28
2022-08-20T15:36:18.812Z,24.33
2022-08-20T15:38:52.183Z,24.32
2022-08-20T15:41:21.608Z,24.30
2022-08-20T15:43:55.150Z,24.31
2022-08-20T15:46:31.137Z,24.34
2022-08-20T15:49:14.162Z,24.33
2022-08-20T15:51:50.914Z,24.30
2022-08-20T15:54:25.820Z,24.29
2022-08-20T15:57:18.833Z,24.28
2022-08-20T16:00:25.112Z,24.22
2022-08-20T16:03:11.200Z,24.05
2022-08-20T16:05:59.899Z,23.96
2022-08-20T16:08:49.564Z,23.80
2022-08-20T16:11:56.095Z,23.68
2022-08-20T16:14:35.262Z,23.73
2022-08-20T16:17:12.631Z,23.74
2022-08-20T16:19:51.517Z,23.77
2022-08-20T16:22:22.306Z,23.84
2022-08-20T16:24:52.734Z,23.88
2022-08-20T16:27:48.352Z,23.86
2022-08-20T16:30:40.157Z,23.94
2022-08-20T16:33:33.583Z,23.98
2022-08-20T16:36:14.762Z,24.04
2022-08-20T16:39:00.585Z,23.97
2022-08-20T16:41:40.818Z,23.82
2022-08-20T16:44:22.631Z,23.69
2022-08-20T16:47:00.418Z,23.67
2022-08-20T16:50:08.425Z,23.59
2022-08-20T16:52:41.653Z,23.50
2022-08-20T16:55:16.394Z,23.52
2022-08-20T16:57:56.888Z,23.55
2022-08-20T17:00:45.024Z,23.58
2022-08-20T17:03:38.572Z,23.62
2022-08-20T17:06:30.145Z,23.59
2022-08-20T17:09:04.813Z,23.57
2022-08-20T17:11:40.340Z,23.53
2022-08-20T17:14:18.560Z,23.46
2022-08-20T17:16:53.275Z,23.40
2022-08-20T17:19:29.928Z,23.32
2022-08-20T17:22:12.071Z,23.28
2022-08-20T17:24:41.154Z,23.20
2022-08-20T17:27:43.423Z,23.03
2022-08-20T17:30:28.744Z,22.96
2022-08-20T17:33:05.218Z,22.92
2022-08-20T17:35:43.480Z,22.81
2022-08-20T17:38:45.848Z,22.72
2022-08-20T17:41:25.204Z,22.56
2022-08-20T17:44:07.393Z,22.53
2022-08-20T17:46:47.898Z,22.60
2022-08-20T17:49:37.766Z,22.63
2022-08-20T17:52:26.147Z,22.62
2022-08-20T17:54:59.196Z,22.54
2022-08-20T17:57:35.875Z,22.50
2022-08-20T18:00:14.462Z,22.43
2022-08-20T18:02:45.883Z,22.37
2022-08-20T18:05:21.989Z,22.30
2022-08-20T18:08:12.288Z,22.22
2022-08-20T18:11:01.842Z,22.17
2022-08-20T18:13:55.740Z,22.17
2022-08-20T18:17:17.919Z,22.23
2022-08-20T18:20:21.021Z,22.26
2022-08-20T18:22:56.406Z,22.25
2022-08-20T18:25:50.153Z,22.21
2022-08-20T18:28:52.891Z,22.16
2022-08-20T18:31:54.053Z,22.18
2022-08-20T18:34:40.643Z,22.25
2022-08-20T18:37:25.859Z,22.30
2022-08-20T18:40:12.034Z,22.31
2022-08-20T18:42:41.093Z,22.34
2022-08-20T18:45:13.428Z,22.32
2022-08-20T18:47:46.177Z,22.32
2022-08-20T18:50:33.211Z,22.33
2022-08-20T18:53:17.096Z,22.34
2022-08-20T18:56:04.916Z,22.33
2022-08-20T18:58:54.703Z,22.32
2022-08-20T19:01:26.307Z,22.31
2022-08-20T19:03:58.564Z,22.22
2022-08-20T19:06:56.884Z,22.17
2022-08-20T19:09:55.697Z,22.14
2022-08-20T19:12:44.404Z,22.01
2022-08-20T19:15:19.294Z,21.94
2022-08-20T19:18:09.980Z,21.89
2022-08-20T19:20:51.762Z,21.85
2022-08-20T19:23:26.558Z,21.83
2022-08-20T19:26:25.313Z,21.80
2022-08-20T19:29:12.552Z,21.74
2022-08-20T19:31:48.972Z,21.65
2022-08-20T19:34:28.736Z,21.60
2022-08-20T19:37:27.704Z,21.55
2022-08-20T19:39:56.847Z,21.48
2022-08-20T19:42:30.724Z,21.49
2022-08-20T19:45:07.897Z,21.48
2022-08-20T19:48:00.466Z,21.45
2022-08-20T19:51:06.680Z,21.45
2022-08-20T19:53:43.371Z,21.42
2022-08-20T19:56:20.596Z,21.40
2022-08-20T19:59:05.816Z,21.39
2022-08-20T20:01:36.793Z,21.41
2022-08-20T20:04:15.173Z,21.46
2022-08-20T20:06:49.849Z,21.47
2022-08-20T20:09:28.443Z,21.47
2022-08-20T20:12:03.137Z,21.44
2022-08-20T20:14:36.993Z,21.46
2022-08-20T20:17:08.021Z,21.49
2022-08-20T20:19:57.503Z,21.53
2022-08-20T20:22:28.443Z,21.56
2022-08-20T20:25:19.793Z,21.58
2022-08-20T20:27:54.849Z,21.57
2022-08-20T20:30:31.059Z,21.56
2022-08-20T20:33:03.693Z,21.52
2022-08-20T20:35:36.277Z,21.49
2022-08-20T20:38:13.525Z,21.46
2022-08-20T20:40:52.268Z,21.42
2022-08-20T20:43:42.035Z,21.39
2022-08-20T20:46:24.045Z,21.32
2022-08-20T20:48:59.106Z,21.27
2022-08-20T20:51:33.625Z,21.24
2022-08-20T20:54:08.388Z,21.18
2022-08-20T20:56:41.608Z,21.14
2022-08-20T20:59:11.495Z,21.16
2022-08-20T21:01:49.928Z,21.16
2022-08-20T21:04:24.250Z,21.15
2022-08-20T21:06:55.561Z,21.13
2022-08-20T21:09:26.917Z,21.15
2022-08-20T21:11:55.540Z,21.15
2022-08-20T21:14:24.799Z,21.14
2022-08-20T21:16:56.970Z,21.08
2022-08-20T21:19:26.613Z,21.03
2022-08-20T21:21:56.619Z,21.02
2022-08-20T21:24:26.819Z,20.95
2022-08-20T21:26:55.724Z,20.83
2022-08-20T21:29:32.552Z,20.77
2022-08-20T21:32:01.765Z,20.77
2022-08-20T21:34:30.456Z,20.74
2022-08-20T21:37:03.229Z,20.74
2022-08-20T21:39:33.045Z,20.74
2022-08-20T21:42:03.983Z,20.74
2022-08-20T21:44:46.209Z,20.71
2022-08-20T21:47:19.957Z,20.67
2022-08-20T21:49:48.585Z,20.62
2022-08-20T21:52:21.022Z,20.62
2022-08-20T21:54:51.511Z,20.60
2022-08-20T21:57:24.646Z,20.60
2022-08-20T21:59:54.586Z,20.60
2022-08-20T22:02:25.160Z,20.60
2022-08-20T22:04:55.308Z,20.60
2022-08-20T22:07:26.517Z,20.52
2022-08-20T22:09:56.231Z,20.41
2022-08-20T22:12:27.020Z,20.33
2022-08-20T22:14:59.588Z,20.29
2022-08-20T22:17:31.248Z,20.27
2022-08-20T22:20:04.477Z,20.28
2022-08-20T22:22:35.528Z,20.30
2022-08-20T22:25:06.220Z,20.30
2022-08-20T22:27:41.214Z,20.28
2022-08-20T22:30:11.140Z,20.30
2022-08-20T22:32:51.954Z,20.33
2022-08-20T22:35:21.455Z,20.36
2022-08-20T22:37:50.586Z,20.35
2022-08-20T22:40:19.414Z,20.34
2022-08-20T22:42:48.069Z,20.32
2022-08-20T22:45:18.080Z,20.31
2022-08-20T22:47:48.161Z,20.31
2022-08-20T22:50:23.504Z,20.33
2022-08-20T22:52:53.345Z,20.35
2022-08-20T22:55:24.397Z,20.34
2022-08-20T22:57:54.892Z,20.33
2022-08-20T23:00:26.571Z,20.34
2022-08-20T23:02:59.600Z,20.38
2022-08-20T23:05:31.894Z,20.41
2022-08-20T23:08:01.398Z,20.44
2022-08-20T23:10:30.898Z,20.47
2022-08-20T23:13:00.095Z,20.48
2022-08-20T23:15:38.033Z,20.50
2022-08-20T23:18:17.233Z,20.51
2022-08-20T23:20:54.152Z,20.55
2022-08-20T23:23:26.140Z,20.63
2022-08-20T23:25:56.332Z,20.64
2022-08-20T23:28:29.193Z,20.69
2022-08-20T23:30:59.442Z,20.70
2022-08-20T23:33:27.765Z,20.67
2022-08-20T23:35:59.721Z,20.66
2022-08-20T23:38:29.618Z,20.65
2022-08-20T23:41:01.910Z,20.66
2022-08-20T23:43:34.125Z,20.68
2022-08-20T23:46:06.324Z,20.64
2022-08-20T23:48:37.689Z,20.63
2022-08-20T23:51:08.567Z,20.59
2022-08-20T23:53:39.104Z,20.52
2022-08-20T23:56:11.177Z,20.52
2022-08-20T23:58:39.688Z,20.56
